KLYO/LYO METAR and TAF weather

Enter ICAO airport designator
Station Type Date Time Source
KLYO METAR 2021/04/14 19:35 UTC NOAA

KLYO 141935Z AUTO 04012G16KT 360V060 10SM CLR 13/M01 A3023 RMK AO2 T01301014


Station Type Date Time Source
KLYO Decoded METAR 2021/04/14 19:35 UTC NOAA

Station name not available
Apr 14, 2021 - 03:35 PM EDT / 2021.04.14 1935 UTC
Wind: from the NE (040 degrees) at 14 MPH (12 KT) gusting to 18 MPH (16 KT) (direction variable):0
Visibility: 10 mile(s):0
Sky conditions: clear
Temperature: 55.4 F (13.0 C)
Dew Point: 29.5 F (-1.4 C)
Relative Humidity: 36%
Pressure (altimeter): 30.23 in. Hg (1023 hPa)
ob: KLYO 141935Z AUTO 04012G16KT 360V060 10SM CLR 13/M01 A3023 RMK AO2 T01301014
cycle: 19

Station Type Date Time Source
KLYO TAF UTC NOAA

Error!

Example: see airport list